sensor_id;sensor_type;location;lat;lon;timestamp;P1;durP1;ratioP1;P2;durP2;ratioP2
11334;SDS011;5722;42.620;23.374;2023-11-22T00:00:15;22.37;;;14.87;;
11334;SDS011;5722;42.620;23.374;2023-11-22T00:02:42;12.07;;;9.40;;
11334;SDS011;5722;42.620;23.374;2023-11-22T00:05:14;13.33;;;10.47;;
11334;SDS011;5722;42.620;23.374;2023-11-22T00:07:44;19.80;;;13.20;;
11334;SDS011;5722;42.620;23.374;2023-11-22T00:10:15;18.10;;;12.43;;
11334;SDS011;5722;42.620;23.374;2023-11-22T00:12:46;24.50;;;14.73;;
11334;SDS011;5722;42.620;23.374;2023-11-22T00:17:57;37.30;;;21.27;;
11334;SDS011;5722;42.620;23.374;2023-11-22T00:20:29;36.67;;;19.90;;
11334;SDS011;5722;42.620;23.374;2023-11-22T00:23:01;27.67;;;17.57;;
11334;SDS011;5722;42.620;23.374;2023-11-22T00:25:37;22.77;;;14.03;;
11334;SDS011;5722;42.620;23.374;2023-11-22T00:28:09;15.53;;;10.70;;
11334;SDS011;5722;42.620;23.374;2023-11-22T00:30:44;14.90;;;9.77;;
11334;SDS011;5722;42.620;23.374;2023-11-22T00:33:14;18.57;;;11.23;;
11334;SDS011;5722;42.620;23.374;2023-11-22T00:35:49;13.50;;;9.27;;
11334;SDS011;5722;42.620;23.374;2023-11-22T00:38:21;13.33;;;10.60;;
11334;SDS011;5722;42.620;23.374;2023-11-22T00:43:56;11.80;;;8.80;;
11334;SDS011;5722;42.620;23.374;2023-11-22T00:46:24;10.30;;;9.00;;
11334;SDS011;5722;42.620;23.374;2023-11-22T00:48:55;13.00;;;9.40;;
11334;SDS011;5722;42.620;23.374;2023-11-22T00:51:23;12.03;;;9.27;;
11334;SDS011;5722;42.620;23.374;2023-11-22T00:53:58;11.23;;;8.50;;
11334;SDS011;5722;42.620;23.374;2023-11-22T00:56:25;12.47;;;9.10;;
11334;SDS011;5722;42.620;23.374;2023-11-22T00:59:01;10.67;;;8.70;;
11334;SDS011;5722;42.620;23.374;2023-11-22T01:01:29;11.77;;;8.47;;
11334;SDS011;5722;42.620;23.374;2023-11-22T01:04:02;11.60;;;8.87;;
11334;SDS011;5722;42.620;23.374;2023-11-22T01:06:38;11.47;;;8.70;;
11334;SDS011;5722;42.620;23.374;2023-11-22T01:09:07;11.23;;;8.80;;
11334;SDS011;5722;42.620;23.374;2023-11-22T01:11:41;12.33;;;9.20;;
11334;SDS011;5722;42.620;23.374;2023-11-22T01:14:14;10.50;;;7.90;;
11334;SDS011;5722;42.620;23.374;2023-11-22T01:16:51;10.33;;;7.83;;
11334;SDS011;5722;42.620;23.374;2023-11-22T01:19:26;8.90;;;7.40;;
11334;SDS011;5722;42.620;23.374;2023-11-22T01:21:56;10.53;;;7.47;;
11334;SDS011;5722;42.620;23.374;2023-11-22T01:24:31;12.33;;;8.07;;
11334;SDS011;5722;42.620;23.374;2023-11-22T01:27:05;10.83;;;8.33;;
11334;SDS011;5722;42.620;23.374;2023-11-22T01:29:35;8.23;;;7.20;;
11334;SDS011;5722;42.620;23.374;2023-11-22T01:32:03;9.87;;;7.60;;
11334;SDS011;5722;42.620;23.374;2023-11-22T01:34:36;10.83;;;7.83;;
11334;SDS011;5722;42.620;23.374;2023-11-22T01:37:12;10.43;;;8.20;;
11334;SDS011;5722;42.620;23.374;2023-11-22T01:39:40;9.03;;;6.83;;
11334;SDS011;5722;42.620;23.374;2023-11-22T01:42:09;8.27;;;7.13;;
11334;SDS011;5722;42.620;23.374;2023-11-22T01:44:39;10.33;;;7.67;;
11334;SDS011;5722;42.620;23.374;2023-11-22T01:47:10;8.80;;;7.37;;
11334;SDS011;5722;42.620;23.374;2023-11-22T01:49:38;8.57;;;7.17;;
11334;SDS011;5722;42.620;23.374;2023-11-22T01:52:14;9.53;;;7.63;;
11334;SDS011;5722;42.620;23.374;2023-11-22T01:54:43;12.93;;;7.60;;
11334;SDS011;5722;42.620;23.374;2023-11-22T01:57:14;9.60;;;7.43;;
11334;SDS011;5722;42.620;23.374;2023-11-22T01:59:55;10.27;;;7.23;;
11334;SDS011;5722;42.620;23.374;2023-11-22T02:02:25;10.23;;;7.77;;
11334;SDS011;5722;42.620;23.374;2023-11-22T02:04:52;8.77;;;7.27;;
11334;SDS011;5722;42.620;23.374;2023-11-22T02:07:20;9.60;;;7.40;;
11334;SDS011;5722;42.620;23.374;2023-11-22T02:09:48;10.17;;;6.93;;
11334;SDS011;5722;42.620;23.374;2023-11-22T02:12:21;10.10;;;7.37;;
11334;SDS011;5722;42.620;23.374;2023-11-22T02:14:50;10.33;;;8.23;;
11334;SDS011;5722;42.620;23.374;2023-11-22T02:17:23;11.87;;;7.73;;
11334;SDS011;5722;42.620;23.374;2023-11-22T02:19:52;11.47;;;8.23;;
11334;SDS011;5722;42.620;23.374;2023-11-22T02:22:20;13.27;;;9.10;;
11334;SDS011;5722;42.620;23.374;2023-11-22T02:24:50;14.17;;;9.67;;
11334;SDS011;5722;42.620;23.374;2023-11-22T02:27:25;13.83;;;9.87;;
11334;SDS011;5722;42.620;23.374;2023-11-22T02:29:53;13.27;;;9.10;;
11334;SDS011;5722;42.620;23.374;2023-11-22T02:32:26;13.17;;;10.37;;
11334;SDS011;5722;42.620;23.374;2023-11-22T02:35:01;13.43;;;10.00;;
11334;SDS011;5722;42.620;23.374;2023-11-22T02:37:32;14.77;;;9.50;;
11334;SDS011;5722;42.620;23.374;2023-11-22T02:40:04;11.60;;;9.27;;
11334;SDS011;5722;42.620;23.374;2023-11-22T02:42:35;14.37;;;9.67;;
11334;SDS011;5722;42.620;23.374;2023-11-22T02:45:07;14.27;;;9.73;;
11334;SDS011;5722;42.620;23.374;2023-11-22T02:47:35;11.27;;;8.93;;
11334;SDS011;5722;42.620;23.374;2023-11-22T02:50:18;13.30;;;10.10;;
11334;SDS011;5722;42.620;23.374;2023-11-22T02:52:47;14.20;;;10.70;;
11334;SDS011;5722;42.620;23.374;2023-11-22T02:55:17;16.43;;;10.97;;
11334;SDS011;5722;42.620;23.374;2023-11-22T02:57:51;17.93;;;11.53;;
11334;SDS011;5722;42.620;23.374;2023-11-22T03:00:23;13.83;;;10.53;;
11334;SDS011;5722;42.620;23.374;2023-11-22T03:02:51;14.63;;;11.00;;
11334;SDS011;5722;42.620;23.374;2023-11-22T03:05:19;12.83;;;10.63;;
11334;SDS011;5722;42.620;23.374;2023-11-22T03:07:51;16.77;;;12.00;;
11334;SDS011;5722;42.620;23.374;2023-11-22T03:13:06;14.97;;;11.07;;
11334;SDS011;5722;42.620;23.374;2023-11-22T03:15:34;13.53;;;10.87;;
11334;SDS011;5722;42.620;23.374;2023-11-22T03:18:06;17.30;;;11.40;;
11334;SDS011;5722;42.620;23.374;2023-11-22T03:20:36;16.37;;;11.20;;
11334;SDS011;5722;42.620;23.374;2023-11-22T03:23:04;13.40;;;10.53;;
11334;SDS011;5722;42.620;23.374;2023-11-22T03:25:37;14.53;;;11.03;;
11334;SDS011;5722;42.620;23.374;2023-11-22T03:28:11;17.67;;;11.60;;
11334;SDS011;5722;42.620;23.374;2023-11-22T03:30:49;18.77;;;12.43;;
11334;SDS011;5722;42.620;23.374;2023-11-22T03:33:20;22.63;;;14.27;;
11334;SDS011;5722;42.620;23.374;2023-11-22T03:35:47;18.20;;;13.07;;
11334;SDS011;5722;42.620;23.374;2023-11-22T03:38:18;18.20;;;12.17;;
11334;SDS011;5722;42.620;23.374;2023-11-22T03:40:48;18.57;;;12.33;;
11334;SDS011;5722;42.620;23.374;2023-11-22T03:43:19;15.43;;;10.73;;
11334;SDS011;5722;42.620;23.374;2023-11-22T03:45:53;13.00;;;9.97;;
11334;SDS011;5722;42.620;23.374;2023-11-22T03:48:24;18.20;;;11.87;;
11334;SDS011;5722;42.620;23.374;2023-11-22T03:51:03;16.87;;;11.77;;
11334;SDS011;5722;42.620;23.374;2023-11-22T03:53:33;19.70;;;13.00;;
11334;SDS011;5722;42.620;23.374;2023-11-22T03:56:02;24.47;;;15.00;;
11334;SDS011;5722;42.620;23.374;2023-11-22T03:58:35;13.10;;;10.90;;
11334;SDS011;5722;42.620;23.374;2023-11-22T04:01:04;21.87;;;14.87;;
11334;SDS011;5722;42.620;23.374;2023-11-22T04:03:37;21.20;;;13.40;;
11334;SDS011;5722;42.620;23.374;2023-11-22T04:06:06;20.13;;;12.30;;
11334;SDS011;5722;42.620;23.374;2023-11-22T04:08:33;18.73;;;13.73;;
11334;SDS011;5722;42.620;23.374;2023-11-22T04:11:03;16.93;;;11.23;;
11334;SDS011;5722;42.620;23.374;2023-11-22T04:13:31;18.70;;;11.50;;
11334;SDS011;5722;42.620;23.374;2023-11-22T04:16:00;16.13;;;11.50;;
11334;SDS011;5722;42.620;23.374;2023-11-22T04:18:30;14.80;;;11.30;;
11334;SDS011;5722;42.620;23.374;2023-11-22T04:24:01;14.70;;;10.37;;
11334;SDS011;5722;42.620;23.374;2023-11-22T04:26:36;14.30;;;10.03;;
11334;SDS011;5722;42.620;23.374;2023-11-22T04:29:04;13.93;;;10.70;;
11334;SDS011;5722;42.620;23.374;2023-11-22T04:31:35;13.80;;;10.10;;
11334;SDS011;5722;42.620;23.374;2023-11-22T04:34:08;13.27;;;9.20;;
11334;SDS011;5722;42.620;23.374;2023-11-22T04:36:39;14.40;;;10.60;;
11334;SDS011;5722;42.620;23.374;2023-11-22T04:39:06;12.50;;;9.97;;
11334;SDS011;5722;42.620;23.374;2023-11-22T04:44:22;13.43;;;9.57;;
11334;SDS011;5722;42.620;23.374;2023-11-22T04:46:53;16.40;;;9.87;;
11334;SDS011;5722;42.620;23.374;2023-11-22T04:49:22;11.93;;;9.60;;
11334;SDS011;5722;42.620;23.374;2023-11-22T04:51:49;14.10;;;9.93;;
11334;SDS011;5722;42.620;23.374;2023-11-22T04:54:20;19.00;;;11.37;;
11334;SDS011;5722;42.620;23.374;2023-11-22T04:56:49;18.03;;;11.27;;
11334;SDS011;5722;42.620;23.374;2023-11-22T04:59:19;17.67;;;10.10;;
11334;SDS011;5722;42.620;23.374;2023-11-22T05:01:47;12.23;;;9.63;;
11334;SDS011;5722;42.620;23.374;2023-11-22T05:04:19;19.07;;;11.87;;
11334;SDS011;5722;42.620;23.374;2023-11-22T05:06:53;15.87;;;11.80;;
11334;SDS011;5722;42.620;23.374;2023-11-22T05:09:21;19.20;;;12.90;;
11334;SDS011;5722;42.620;23.374;2023-11-22T05:11:55;19.13;;;13.37;;
11334;SDS011;5722;42.620;23.374;2023-11-22T05:14:24;19.43;;;13.50;;
11334;SDS011;5722;42.620;23.374;2023-11-22T05:16:54;19.10;;;12.67;;
11334;SDS011;5722;42.620;23.374;2023-11-22T05:19:31;20.83;;;12.83;;
11334;SDS011;5722;42.620;23.374;2023-11-22T05:25:47;24.87;;;12.80;;
11334;SDS011;5722;42.620;23.374;2023-11-22T05:31:39;20.13;;;12.93;;
11334;SDS011;5722;42.620;23.374;2023-11-22T05:34:36;17.23;;;12.70;;
11334;SDS011;5722;42.620;23.374;2023-11-22T05:55:56;23.03;;;13.80;;
11334;SDS011;5722;42.620;23.374;2023-11-22T05:58:25;18.53;;;14.07;;
11334;SDS011;5722;42.620;23.374;2023-11-22T06:01:00;19.37;;;15.00;;
11334;SDS011;5722;42.620;23.374;2023-11-22T06:03:28;20.87;;;14.03;;
11334;SDS011;5722;42.620;23.374;2023-11-22T06:05:59;21.73;;;17.23;;
11334;SDS011;5722;42.620;23.374;2023-11-22T06:08:43;21.37;;;14.30;;
11334;SDS011;5722;42.620;23.374;2023-11-22T06:11:27;19.97;;;14.40;;
11334;SDS011;5722;42.620;23.374;2023-11-22T06:13:57;18.03;;;14.27;;
11334;SDS011;5722;42.620;23.374;2023-11-22T06:16:40;19.83;;;14.33;;
11334;SDS011;5722;42.620;23.374;2023-11-22T06:19:08;22.63;;;13.87;;
11334;SDS011;5722;42.620;23.374;2023-11-22T06:21:38;19.77;;;14.30;;
11334;SDS011;5722;42.620;23.374;2023-11-22T06:24:05;21.77;;;13.77;;
11334;SDS011;5722;42.620;23.374;2023-11-22T06:26:44;18.60;;;14.20;;
11334;SDS011;5722;42.620;23.374;2023-11-22T06:29:16;20.30;;;14.67;;
11334;SDS011;5722;42.620;23.374;2023-11-22T06:31:43;18.97;;;13.97;;
11334;SDS011;5722;42.620;23.374;2023-11-22T06:34:10;18.50;;;14.10;;
11334;SDS011;5722;42.620;23.374;2023-11-22T06:36:38;18.10;;;14.07;;
11334;SDS011;5722;42.620;23.374;2023-11-22T06:39:06;20.83;;;14.20;;
11334;SDS011;5722;42.620;23.374;2023-11-22T06:41:34;23.63;;;18.63;;
11334;SDS011;5722;42.620;23.374;2023-11-22T06:44:10;21.03;;;15.30;;
11334;SDS011;5722;42.620;23.374;2023-11-22T06:46:37;60.17;;;42.10;;
11334;SDS011;5722;42.620;23.374;2023-11-22T06:49:04;26.47;;;20.27;;
11334;SDS011;5722;42.620;23.374;2023-11-22T06:51:34;35.73;;;24.73;;
11334;SDS011;5722;42.620;23.374;2023-11-22T06:54:04;62.70;;;46.63;;
11334;SDS011;5722;42.620;23.374;2023-11-22T06:56:36;27.60;;;20.20;;
11334;SDS011;5722;42.620;23.374;2023-11-22T06:59:13;20.03;;;14.83;;
11334;SDS011;5722;42.620;23.374;2023-11-22T07:01:47;29.87;;;21.10;;
11334;SDS011;5722;42.620;23.374;2023-11-22T07:04:15;29.93;;;21.37;;
11334;SDS011;5722;42.620;23.374;2023-11-22T07:06:50;24.30;;;18.83;;
11334;SDS011;5722;42.620;23.374;2023-11-22T07:09:26;27.47;;;18.97;;
11334;SDS011;5722;42.620;23.374;2023-11-22T07:11:55;45.33;;;34.20;;
11334;SDS011;5722;42.620;23.374;2023-11-22T07:14:27;27.33;;;19.13;;
11334;SDS011;5722;42.620;23.374;2023-11-22T07:16:58;36.33;;;25.00;;
11334;SDS011;5722;42.620;23.374;2023-11-22T07:19:25;30.17;;;20.60;;
11334;SDS011;5722;42.620;23.374;2023-11-22T07:21:54;40.67;;;30.30;;
11334;SDS011;5722;42.620;23.374;2023-11-22T07:24:39;58.57;;;35.53;;
11334;SDS011;5722;42.620;23.374;2023-11-22T07:27:09;29.30;;;19.87;;
11334;SDS011;5722;42.620;23.374;2023-11-22T07:29:40;34.10;;;24.27;;
11334;SDS011;5722;42.620;23.374;2023-11-22T07:32:09;28.07;;;18.77;;
11334;SDS011;5722;42.620;23.374;2023-11-22T07:34:37;114.33;;;55.13;;
11334;SDS011;5722;42.620;23.374;2023-11-22T07:37:09;92.87;;;46.77;;
11334;SDS011;5722;42.620;23.374;2023-11-22T07:39:50;32.33;;;20.60;;
11334;SDS011;5722;42.620;23.374;2023-11-22T07:42:20;18.53;;;14.10;;
11334;SDS011;5722;42.620;23.374;2023-11-22T07:44:51;18.63;;;14.97;;
11334;SDS011;5722;42.620;23.374;2023-11-22T07:47:21;20.63;;;14.67;;
11334;SDS011;5722;42.620;23.374;2023-11-22T07:49:50;17.80;;;14.03;;
11334;SDS011;5722;42.620;23.374;2023-11-22T07:52:18;20.53;;;14.63;;
11334;SDS011;5722;42.620;23.374;2023-11-22T07:54:50;20.27;;;16.03;;
11334;SDS011;5722;42.620;23.374;2023-11-22T07:57:22;23.53;;;15.63;;
11334;SDS011;5722;42.620;23.374;2023-11-22T07:59:51;23.47;;;17.90;;
11334;SDS011;5722;42.620;23.374;2023-11-22T08:02:23;25.27;;;18.00;;
11334;SDS011;5722;42.620;23.374;2023-11-22T08:04:50;22.70;;;18.50;;
11334;SDS011;5722;42.620;23.374;2023-11-22T08:07:21;24.37;;;18.60;;
11334;SDS011;5722;42.620;23.374;2023-11-22T08:09:52;26.10;;;19.33;;
11334;SDS011;5722;42.620;23.374;2023-11-22T08:12:22;25.13;;;19.53;;
11334;SDS011;5722;42.620;23.374;2023-11-22T08:20:13;23.07;;;17.70;;
11334;SDS011;5722;42.620;23.374;2023-11-22T08:22:54;21.10;;;17.93;;
11334;SDS011;5722;42.620;23.374;2023-11-22T08:25:23;24.03;;;18.27;;
11334;SDS011;5722;42.620;23.374;2023-11-22T08:27:53;24.07;;;17.73;;
11334;SDS011;5722;42.620;23.374;2023-11-22T08:30:34;24.53;;;17.90;;
11334;SDS011;5722;42.620;23.374;2023-11-22T08:33:08;24.33;;;17.97;;
11334;SDS011;5722;42.620;23.374;2023-11-22T08:35:42;21.60;;;17.80;;
11334;SDS011;5722;42.620;23.374;2023-11-22T08:38:23;26.47;;;17.10;;
11334;SDS011;5722;42.620;23.374;2023-11-22T08:40:52;22.13;;;18.07;;
11334;SDS011;5722;42.620;23.374;2023-11-22T08:43:21;20.13;;;17.53;;
11334;SDS011;5722;42.620;23.374;2023-11-22T08:45:57;24.73;;;17.83;;
11334;SDS011;5722;42.620;23.374;2023-11-22T08:48:25;19.63;;;17.43;;
11334;SDS011;5722;42.620;23.374;2023-11-22T08:50:57;22.53;;;17.40;;
11334;SDS011;5722;42.620;23.374;2023-11-22T08:53:33;19.80;;;16.97;;
11334;SDS011;5722;42.620;23.374;2023-11-22T08:56:04;23.07;;;17.33;;
11334;SDS011;5722;42.620;23.374;2023-11-22T08:58:46;21.83;;;17.53;;
11334;SDS011;5722;42.620;23.374;2023-11-22T09:01:18;22.50;;;17.27;;
11334;SDS011;5722;42.620;23.374;2023-11-22T09:03:47;22.50;;;17.77;;
11334;SDS011;5722;42.620;23.374;2023-11-22T09:06:26;24.30;;;17.23;;
11334;SDS011;5722;42.620;23.374;2023-11-22T09:08:55;23.90;;;18.27;;
11334;SDS011;5722;42.620;23.374;2023-11-22T09:11:26;24.47;;;17.70;;
11334;SDS011;5722;42.620;23.374;2023-11-22T09:14:07;20.63;;;17.13;;
11334;SDS011;5722;42.620;23.374;2023-11-22T09:16:48;21.13;;;17.37;;
11334;SDS011;5722;42.620;23.374;2023-11-22T09:19:26;18.90;;;16.40;;
11334;SDS011;5722;42.620;23.374;2023-11-22T09:22:10;17.43;;;14.10;;
11334;SDS011;5722;42.620;23.374;2023-11-22T09:24:50;22.70;;;15.90;;
11334;SDS011;5722;42.620;23.374;2023-11-22T09:27:18;22.93;;;16.40;;
11334;SDS011;5722;42.620;23.374;2023-11-22T09:29:46;22.17;;;15.93;;
11334;SDS011;5722;42.620;23.374;2023-11-22T09:32:13;27.27;;;17.30;;
11334;SDS011;5722;42.620;23.374;2023-11-22T09:34:48;21.17;;;17.13;;
11334;SDS011;5722;42.620;23.374;2023-11-22T09:37:32;23.07;;;17.37;;
11334;SDS011;5722;42.620;23.374;2023-11-22T09:40:01;23.93;;;17.87;;
11334;SDS011;5722;42.620;23.374;2023-11-22T09:42:34;23.57;;;16.77;;
11334;SDS011;5722;42.620;23.374;2023-11-22T09:45:02;21.77;;;17.13;;
11334;SDS011;5722;42.620;23.374;2023-11-22T09:47:31;22.67;;;16.77;;
11334;SDS011;5722;42.620;23.374;2023-11-22T09:50:03;20.80;;;16.00;;
11334;SDS011;5722;42.620;23.374;2023-11-22T09:52:42;27.97;;;18.10;;
11334;SDS011;5722;42.620;23.374;2023-11-22T09:55:10;23.77;;;17.83;;
11334;SDS011;5722;42.620;23.374;2023-11-22T09:57:39;20.27;;;17.57;;
11334;SDS011;5722;42.620;23.374;2023-11-22T10:00:11;24.57;;;17.83;;
11334;SDS011;5722;42.620;23.374;2023-11-22T10:15:48;28.90;;;19.80;;
11334;SDS011;5722;42.620;23.374;2023-11-22T10:21:15;24.97;;;17.17;;
11334;SDS011;5722;42.620;23.374;2023-11-22T10:23:59;23.70;;;17.57;;
11334;SDS011;5722;42.620;23.374;2023-11-22T10:26:42;22.00;;;18.03;;
11334;SDS011;5722;42.620;23.374;2023-11-22T10:29:10;22.13;;;18.23;;
11334;SDS011;5722;42.620;23.374;2023-11-22T10:31:54;25.27;;;18.77;;
11334;SDS011;5722;42.620;23.374;2023-11-22T10:34:23;26.30;;;18.43;;
11334;SDS011;5722;42.620;23.374;2023-11-22T10:36:51;23.63;;;17.70;;
11334;SDS011;5722;42.620;23.374;2023-11-22T10:39:26;27.40;;;18.77;;
11334;SDS011;5722;42.620;23.374;2023-11-22T10:42:06;24.23;;;18.90;;
11334;SDS011;5722;42.620;23.374;2023-11-22T10:44:35;27.43;;;18.67;;
11334;SDS011;5722;42.620;23.374;2023-11-22T10:52:37;24.00;;;17.93;;
11334;SDS011;5722;42.620;23.374;2023-11-22T10:55:05;22.87;;;18.87;;
11334;SDS011;5722;42.620;23.374;2023-11-22T10:57:36;26.87;;;19.53;;
11334;SDS011;5722;42.620;23.374;2023-11-22T11:00:08;25.10;;;19.27;;
11334;SDS011;5722;42.620;23.374;2023-11-22T11:02:45;27.73;;;19.03;;
11334;SDS011;5722;42.620;23.374;2023-11-22T11:05:16;24.30;;;18.93;;
11334;SDS011;5722;42.620;23.374;2023-11-22T11:13:33;24.43;;;19.40;;
11334;SDS011;5722;42.620;23.374;2023-11-22T11:16:06;25.97;;;18.37;;
11334;SDS011;5722;42.620;23.374;2023-11-22T11:18:34;24.23;;;19.00;;
11334;SDS011;5722;42.620;23.374;2023-11-22T11:21:07;25.97;;;20.23;;
11334;SDS011;5722;42.620;23.374;2023-11-22T11:23:38;23.20;;;18.67;;
11334;SDS011;5722;42.620;23.374;2023-11-22T11:26:14;23.27;;;18.97;;
11334;SDS011;5722;42.620;23.374;2023-11-22T11:28:45;26.03;;;20.03;;
11334;SDS011;5722;42.620;23.374;2023-11-22T11:31:16;30.67;;;19.63;;
11334;SDS011;5722;42.620;23.374;2023-11-22T11:33:55;27.20;;;20.17;;
11334;SDS011;5722;42.620;23.374;2023-11-22T11:36:30;23.00;;;18.80;;
11334;SDS011;5722;42.620;23.374;2023-11-22T11:38:59;26.80;;;19.60;;
11334;SDS011;5722;42.620;23.374;2023-11-22T11:41:26;27.23;;;20.53;;
11334;SDS011;5722;42.620;23.374;2023-11-22T11:44:01;22.87;;;19.53;;
11334;SDS011;5722;42.620;23.374;2023-11-22T11:46:30;26.50;;;19.60;;
11334;SDS011;5722;42.620;23.374;2023-11-22T11:49:01;24.20;;;18.93;;
11334;SDS011;5722;42.620;23.374;2023-11-22T11:51:35;28.50;;;20.13;;
11334;SDS011;5722;42.620;23.374;2023-11-22T11:54:09;25.80;;;21.60;;
11334;SDS011;5722;42.620;23.374;2023-11-22T11:56:40;27.43;;;21.07;;
11334;SDS011;5722;42.620;23.374;2023-11-22T11:59:11;31.27;;;21.83;;
11334;SDS011;5722;42.620;23.374;2023-11-22T12:01:40;32.90;;;22.53;;
11334;SDS011;5722;42.620;23.374;2023-11-22T12:04:16;26.37;;;19.60;;
11334;SDS011;5722;42.620;23.374;2023-11-22T12:06:48;25.10;;;19.00;;
11334;SDS011;5722;42.620;23.374;2023-11-22T12:09:22;24.73;;;17.80;;
11334;SDS011;5722;42.620;23.374;2023-11-22T12:11:54;20.83;;;17.10;;
11334;SDS011;5722;42.620;23.374;2023-11-22T12:17:08;20.03;;;15.47;;
11334;SDS011;5722;42.620;23.374;2023-11-22T12:19:42;20.77;;;16.60;;
11334;SDS011;5722;42.620;23.374;2023-11-22T12:22:25;23.23;;;16.47;;
11334;SDS011;5722;42.620;23.374;2023-11-22T12:24:56;30.13;;;19.87;;
11334;SDS011;5722;42.620;23.374;2023-11-22T12:27:24;27.27;;;19.20;;
11334;SDS011;5722;42.620;23.374;2023-11-22T12:30:05;26.50;;;19.27;;
11334;SDS011;5722;42.620;23.374;2023-11-22T12:32:36;31.77;;;19.47;;
11334;SDS011;5722;42.620;23.374;2023-11-22T12:35:11;28.60;;;20.23;;
11334;SDS011;5722;42.620;23.374;2023-11-22T12:38:05;26.33;;;19.53;;
11334;SDS011;5722;42.620;23.374;2023-11-22T12:40:46;36.13;;;19.27;;
11334;SDS011;5722;42.620;23.374;2023-11-22T12:43:26;29.30;;;19.90;;
11334;SDS011;5722;42.620;23.374;2023-11-22T12:46:05;24.23;;;18.17;;
11334;SDS011;5722;42.620;23.374;2023-11-22T12:48:50;26.77;;;19.23;;
11334;SDS011;5722;42.620;23.374;2023-11-22T12:51:19;25.77;;;18.43;;
11334;SDS011;5722;42.620;23.374;2023-11-22T12:53:52;29.53;;;20.03;;
11334;SDS011;5722;42.620;23.374;2023-11-22T12:56:33;24.93;;;19.93;;
11334;SDS011;5722;42.620;23.374;2023-11-22T12:59:07;29.17;;;20.37;;
11334;SDS011;5722;42.620;23.374;2023-11-22T13:02:09;24.47;;;20.03;;
11334;SDS011;5722;42.620;23.374;2023-11-22T13:05:02;30.07;;;19.97;;
11334;SDS011;5722;42.620;23.374;2023-11-22T13:21:38;31.13;;;19.90;;
11334;SDS011;5722;42.620;23.374;2023-11-22T13:30:06;27.57;;;19.83;;
11334;SDS011;5722;42.620;23.374;2023-11-22T13:32:54;27.10;;;20.53;;
11334;SDS011;5722;42.620;23.374;2023-11-22T13:35:25;31.23;;;20.20;;
11334;SDS011;5722;42.620;23.374;2023-11-22T13:40:43;38.17;;;21.17;;
11334;SDS011;5722;42.620;23.374;2023-11-22T13:43:22;30.17;;;20.83;;
11334;SDS011;5722;42.620;23.374;2023-11-22T13:45:54;26.03;;;20.10;;
11334;SDS011;5722;42.620;23.374;2023-11-22T13:48:24;35.47;;;20.20;;
11334;SDS011;5722;42.620;23.374;2023-11-22T13:50:55;36.40;;;20.17;;
11334;SDS011;5722;42.620;23.374;2023-11-22T13:53:25;32.47;;;20.30;;
11334;SDS011;5722;42.620;23.374;2023-11-22T13:56:03;26.17;;;19.73;;
11334;SDS011;5722;42.620;23.374;2023-11-22T13:58:34;25.87;;;19.00;;
11334;SDS011;5722;42.620;23.374;2023-11-22T14:01:04;27.17;;;18.87;;
11334;SDS011;5722;42.620;23.374;2023-11-22T14:03:35;26.13;;;18.73;;
11334;SDS011;5722;42.620;23.374;2023-11-22T14:06:07;30.97;;;19.83;;
11334;SDS011;5722;42.620;23.374;2023-11-22T14:08:38;23.77;;;19.63;;
11334;SDS011;5722;42.620;23.374;2023-11-22T14:11:21;25.93;;;19.73;;
11334;SDS011;5722;42.620;23.374;2023-11-22T14:13:55;29.20;;;20.27;;
11334;SDS011;5722;42.620;23.374;2023-11-22T14:16:30;29.83;;;20.53;;
11334;SDS011;5722;42.620;23.374;2023-11-22T14:19:01;28.60;;;20.40;;
11334;SDS011;5722;42.620;23.374;2023-11-22T14:24:33;31.03;;;20.87;;
11334;SDS011;5722;42.620;23.374;2023-11-22T14:29:54;29.23;;;20.50;;
11334;SDS011;5722;42.620;23.374;2023-11-22T14:32:26;27.47;;;20.40;;
11334;SDS011;5722;42.620;23.374;2023-11-22T14:35:02;29.10;;;20.17;;
11334;SDS011;5722;42.620;23.374;2023-11-22T14:37:32;31.67;;;20.00;;
11334;SDS011;5722;42.620;23.374;2023-11-22T14:40:07;31.00;;;24.30;;
11334;SDS011;5722;42.620;23.374;2023-11-22T14:42:39;33.03;;;25.30;;
11334;SDS011;5722;42.620;23.374;2023-11-22T14:45:10;35.87;;;25.97;;
11334;SDS011;5722;42.620;23.374;2023-11-22T14:47:42;43.53;;;27.37;;
11334;SDS011;5722;42.620;23.374;2023-11-22T14:50:12;34.23;;;27.53;;
11334;SDS011;5722;42.620;23.374;2023-11-22T14:52:45;34.97;;;26.67;;
11334;SDS011;5722;42.620;23.374;2023-11-22T15:00:35;38.13;;;26.93;;
11334;SDS011;5722;42.620;23.374;2023-11-22T15:08:46;32.23;;;22.10;;
11334;SDS011;5722;42.620;23.374;2023-11-22T15:11:28;32.70;;;20.43;;
11334;SDS011;5722;42.620;23.374;2023-11-22T15:13:57;35.17;;;21.20;;
11334;SDS011;5722;42.620;23.374;2023-11-22T15:16:31;35.50;;;23.43;;
11334;SDS011;5722;42.620;23.374;2023-11-22T15:19:12;49.47;;;24.47;;
11334;SDS011;5722;42.620;23.374;2023-11-22T15:21:54;37.50;;;23.97;;
11334;SDS011;5722;42.620;23.374;2023-11-22T15:24:36;32.70;;;23.73;;
11334;SDS011;5722;42.620;23.374;2023-11-22T15:27:18;35.70;;;24.20;;
11334;SDS011;5722;42.620;23.374;2023-11-22T15:44:19;37.40;;;26.57;;
11334;SDS011;5722;42.620;23.374;2023-11-22T15:46:53;36.07;;;26.60;;
11334;SDS011;5722;42.620;23.374;2023-11-22T15:49:32;34.50;;;25.77;;
11334;SDS011;5722;42.620;23.374;2023-11-22T15:52:08;32.50;;;23.43;;
11334;SDS011;5722;42.620;23.374;2023-11-22T15:54:48;41.23;;;22.10;;
11334;SDS011;5722;42.620;23.374;2023-11-22T15:57:20;30.53;;;22.97;;
11334;SDS011;5722;42.620;23.374;2023-11-22T16:00:18;27.00;;;19.20;;
11334;SDS011;5722;42.620;23.374;2023-11-22T16:03:04;23.17;;;17.63;;
11334;SDS011;5722;42.620;23.374;2023-11-22T16:06:08;23.87;;;16.57;;
11334;SDS011;5722;42.620;23.374;2023-11-22T16:08:52;19.10;;;14.73;;
11334;SDS011;5722;42.620;23.374;2023-11-22T16:11:39;21.80;;;15.70;;
11334;SDS011;5722;42.620;23.374;2023-11-22T16:14:20;22.80;;;15.87;;
11334;SDS011;5722;42.620;23.374;2023-11-22T16:23:11;34.40;;;21.07;;
11334;SDS011;5722;42.620;23.374;2023-11-22T16:25:51;26.03;;;20.70;;
11334;SDS011;5722;42.620;23.374;2023-11-22T16:28:23;31.80;;;19.73;;
11334;SDS011;5722;42.620;23.374;2023-11-22T16:31:20;28.90;;;18.40;;
11334;SDS011;5722;42.620;23.374;2023-11-22T16:34:04;25.67;;;17.50;;
11334;SDS011;5722;42.620;23.374;2023-11-22T16:36:51;21.03;;;17.40;;
11334;SDS011;5722;42.620;23.374;2023-11-22T16:48:10;11.57;;;9.33;;
11334;SDS011;5722;42.620;23.374;2023-11-22T16:50:49;12.87;;;9.50;;
11334;SDS011;5722;42.620;23.374;2023-11-22T16:53:34;12.93;;;9.13;;
11334;SDS011;5722;42.620;23.374;2023-11-22T16:56:14;14.13;;;9.23;;
11334;SDS011;5722;42.620;23.374;2023-11-22T16:58:52;14.03;;;9.47;;
11334;SDS011;5722;42.620;23.374;2023-11-22T17:01:38;13.70;;;10.00;;
11334;SDS011;5722;42.620;23.374;2023-11-22T17:36:43;19.77;;;12.23;;
11334;SDS011;5722;42.620;23.374;2023-11-22T17:39:22;16.87;;;11.73;;
11334;SDS011;5722;42.620;23.374;2023-11-22T17:41:56;14.07;;;10.00;;
11334;SDS011;5722;42.620;23.374;2023-11-22T17:44:45;16.17;;;10.63;;
11334;SDS011;5722;42.620;23.374;2023-11-22T17:47:27;12.93;;;10.50;;
11334;SDS011;5722;42.620;23.374;2023-11-22T18:11:26;21.23;;;16.30;;
11334;SDS011;5722;42.620;23.374;2023-11-22T18:13:56;17.37;;;13.70;;
11334;SDS011;5722;42.620;23.374;2023-11-22T18:16:27;19.00;;;13.97;;